»·PEaware :: KLM691 KLAS-KSFO

KLM691 :: KLAS-KSFO

FLIGHT INFORMATION

Flight Status: Arrived
Operator:
KLM
More flights by this operator :: More flights under this callsign
Pilot: Thomas N. (7419)
Aircraft: BOEING 777-300
(B773)
More flights by this aircraft type
Origin: KLAS McCarran Intl
United States
Destination: KSFO San Francisco Intl
United States
More flights between these airports :: More routes between these airports
Route: +SHEAD9 KENNO RUSME DYAMD2
File this flight plan on PilotEdge
Remarks:
Altitude:
(Current/Filed)
32,000ft
Speed:
(Current/Filed)
420kts
Departed: 17-Dec-15 10:17 AM
Arrived: 17-Dec-15 11:21 AM
Distance/Time
Traveled:
359nm/1:04
Distance/Time
To Go:
Arrived

Flight Plot

Page will automatically refresh every two minutes.


Map Options




Map Legend


Flown Route
Filed Route
Departure Airport
Arrival Airport
Navaid (VOR, NDB)
Fix

Horizontal Profiles

Position Reports

Time Latitude Longitude Heading Altitude Ground
Speed
17-Dec-15 09:52 36.088684 -115.153677 39 2158ft 0kts
17-Dec-15 09:53 36.088684 -115.153677 39 2158ft 0kts
17-Dec-15 09:54 36.088684 -115.153677 39 2158ft 0kts
17-Dec-15 09:55 36.088684 -115.153677 39 2158ft 0kts
17-Dec-15 09:56 36.088684 -115.153677 39 2158ft 0kts
17-Dec-15 09:57 36.088684 -115.153677 39 2158ft 0kts
17-Dec-15 09:58 36.088171 -115.153652 332 2159ft 2kts
17-Dec-15 09:59 36.087994 -115.153422 275 2159ft 0kts
17-Dec-15 10:00 36.087994 -115.153422 275 2159ft 0kts
17-Dec-15 10:01 36.087994 -115.153422 275 2159ft 0kts
17-Dec-15 10:02 36.087994 -115.153422 275 2159ft 0kts
17-Dec-15 10:03 36.087995 -115.153436 275 2159ft 0kts
17-Dec-15 10:04 36.088002 -115.153523 275 2159ft 0kts
17-Dec-15 10:05 36.087960 -115.153814 257 2158ft 6kts
17-Dec-15 10:06 36.087584 -115.156732 268 2158ft 8kts
17-Dec-15 10:07 36.086692 -115.158183 201 2158ft 18kts
17-Dec-15 10:08 36.082197 -115.160778 206 2158ft 13kts
17-Dec-15 10:09 36.077836 -115.163217 204 2159ft 26kts
17-Dec-15 10:10 36.075170 -115.164762 204 2159ft 0kts
17-Dec-15 10:11 36.073908 -115.166195 299 2158ft 0kts
17-Dec-15 10:12 36.074929 -115.167198 22 2158ft 8kts
17-Dec-15 10:13 36.109039 -115.146994 25 3302ft 215kts
17-Dec-15 10:14 36.139347 -115.179473 242 5662ft 207kts
17-Dec-15 10:15 36.116008 -115.254577 254 8902ft 249kts
17-Dec-15 10:16 36.079221 -115.302889 205 10103ft 218kts
17-Dec-15 10:17 36.025376 -115.332444 203 11966ft 292kts
17-Dec-15 10:18 35.945452 -115.374248 202 13983ft 337kts
17-Dec-15 10:19 35.886532 -115.458561 263 15928ft 347kts
17-Dec-15 10:20 35.889054 -115.579184 271 17861ft 357kts
17-Dec-15 10:21 35.891336 -115.702955 271 18994ft 366kts
17-Dec-15 10:22 35.893558 -115.839604 271 19140ft 403kts
17-Dec-15 10:23 35.899196 -115.951458 287 20201ft 395kts
17-Dec-15 10:24 35.961483 -116.046941 316 21434ft 403kts
17-Dec-15 10:25 36.043517 -116.141031 317 22727ft 411kts
17-Dec-15 10:26 36.127966 -116.238360 316 24342ft 421kts
17-Dec-15 10:27 36.214511 -116.338655 316 26054ft 432kts
17-Dec-15 10:28 36.302934 -116.441474 316 27758ft 444kts
17-Dec-15 10:29 36.393954 -116.547666 316 29473ft 456kts
17-Dec-15 10:30 36.487406 -116.657081 316 31190ft 468kts
17-Dec-15 10:31 36.584969 -116.763577 328 31999ft 475kts
17-Dec-15 10:32 36.697542 -116.849484 328 31999ft 474kts
17-Dec-15 10:33 36.809949 -116.935197 328 31999ft 474kts
17-Dec-15 10:34 36.922194 -117.021047 328 31999ft 474kts
17-Dec-15 10:35 37.030501 -117.104166 328 31999ft 474kts
17-Dec-15 10:36 37.142491 -117.189719 328 32000ft 474kts
17-Dec-15 10:37 37.254600 -117.276310 328 32000ft 474kts
17-Dec-15 10:38 37.359657 -117.375941 319 31999ft 474kts
17-Dec-15 10:39 37.457625 -117.486899 308 31999ft 474kts
17-Dec-15 10:40 37.506078 -117.638254 274 32004ft 474kts
17-Dec-15 10:41 37.517484 -117.803683 275 31999ft 474kts
17-Dec-15 10:42 37.530505 -117.968079 275 32000ft 474kts
17-Dec-15 10:43 37.543338 -118.131095 275 31999ft 474kts
17-Dec-15 10:44 37.554540 -118.271049 275 32000ft 474kts
17-Dec-15 10:45 37.567038 -118.435547 275 32000ft 474kts
17-Dec-15 10:46 37.579326 -118.600804 275 32000ft 474kts
17-Dec-15 10:47 37.591330 -118.765367 275 32000ft 474kts
17-Dec-15 10:48 37.602984 -118.928350 275 31041ft 454kts
17-Dec-15 10:49 37.613922 -119.084008 275 30428ft 448kts
17-Dec-15 10:50 37.624721 -119.234571 274 29944ft 445kts
17-Dec-15 10:51 37.635182 -119.388608 274 29444ft 442kts
17-Dec-15 10:52 37.645369 -119.542283 274 28942ft 438kts
17-Dec-15 10:53 37.655262 -119.694552 274 28440ft 435kts
17-Dec-15 10:54 37.664936 -119.846458 274 27936ft 431kts
17-Dec-15 10:55 37.674143 -119.993955 274 27422ft 420kts
17-Dec-15 10:56 37.683026 -120.137245 274 27000ft 417kts
17-Dec-15 10:57 37.692029 -120.282169 274 27000ft 418kts
17-Dec-15 10:58 37.695795 -120.428227 262 26802ft 419kts
17-Dec-15 10:59 37.679746 -120.570804 261 25296ft 407kts
17-Dec-15 11:00 37.663378 -120.709684 261 23718ft 398kts
17-Dec-15 11:01 37.647168 -120.844743 261 22112ft 388kts
17-Dec-15 11:02 37.631061 -120.976033 260 20247ft 377kts
17-Dec-15 11:03 37.614286 -121.101334 260 18327ft 367kts
17-Dec-15 11:04 37.597993 -121.224896 260 16328ft 358kts
17-Dec-15 11:05 37.583085 -121.347566 261 14235ft 353kts
17-Dec-15 11:06 37.569071 -121.468466 261 12152ft 348kts
17-Dec-15 11:07 37.555061 -121.588209 261 10063ft 344kts
17-Dec-15 11:08 37.532829 -121.699534 253 9021ft 322kts
17-Dec-15 11:09 37.507991 -121.803479 253 7681ft 282kts
17-Dec-15 11:10 37.494765 -121.895114 281 6639ft 274kts
17-Dec-15 11:11 37.507154 -121.982926 280 6620ft 276kts
17-Dec-15 11:12 37.521034 -122.075167 281 6455ft 278kts
17-Dec-15 11:13 37.536178 -122.162479 294 3217ft 259kts
17-Dec-15 11:14 37.565901 -122.243210 297 1966ft 220kts
17-Dec-15 11:15 37.591878 -122.305590 297 974ft 189kts
17-Dec-15 11:16 37.613229 -122.356551 298 46ft 140kts
17-Dec-15 11:17 37.621988 -122.377781 281 30ft 25kts
17-Dec-15 11:18 37.622192 -122.380390 276 30ft 0kts
17-Dec-15 11:19 37.622192 -122.380391 276 30ft 0kts
17-Dec-15 11:20 37.622142 -122.384958 267 30ft 24kts
17-Dec-15 11:21 37.621871 -122.391227 211 30ft 11kts
17-Dec-15 11:22 37.618971 -122.389463 146 31ft 18kts

Navigation Log

Ident Type
Flight plan parsing failed, navigation log unavailable